createdAt,value
2023-04-29T00:01:37.599Z,7.80
2023-04-29T00:04:05.213Z,7.75
2023-04-29T00:06:32.740Z,6.00
2023-04-29T00:09:00.028Z,6.40
2023-04-29T00:11:27.392Z,8.13
2023-04-29T00:13:54.713Z,7.13
2023-04-29T00:16:21.973Z,6.93
2023-04-29T00:18:49.342Z,7.75
2023-04-29T00:21:16.682Z,13.38
2023-04-29T00:23:43.905Z,6.00
2023-04-29T00:26:11.833Z,7.05
2023-04-29T00:28:39.817Z,7.03
2023-04-29T00:31:07.064Z,7.55
2023-04-29T00:33:34.413Z,6.43
2023-04-29T00:36:02.202Z,8.90
2023-04-29T00:38:29.597Z,6.88
2023-04-29T00:40:57.323Z,8.15
2023-04-29T00:43:24.652Z,6.85
2023-04-29T00:45:52.179Z,7.80
2023-04-29T00:48:19.410Z,6.50
2023-04-29T00:50:46.718Z,7.10
2023-04-29T00:53:14.286Z,8.65
2023-04-29T00:55:42.206Z,11.10
2023-04-29T00:58:10.685Z,7.43
2023-04-29T01:00:38.147Z,6.68
2023-04-29T01:03:06.091Z,7.47
2023-04-29T01:05:33.776Z,9.23
2023-04-29T01:08:04.576Z,7.95
2023-04-29T01:10:36.843Z,10.25
2023-04-29T01:13:11.855Z,8.25
2023-04-29T01:15:48.244Z,11.07
2023-04-29T01:18:28.128Z,7.50
2023-04-29T01:20:57.669Z,7.68
2023-04-29T01:23:29.007Z,7.45
2023-04-29T01:25:57.736Z,9.23
2023-04-29T01:28:52.361Z,7.88
2023-04-29T01:31:35.796Z,9.10
2023-04-29T01:34:14.352Z,10.32
2023-04-29T01:36:44.790Z,10.05
2023-04-29T01:39:21.740Z,8.07
2023-04-29T01:42:14.641Z,8.95
2023-04-29T01:44:42.739Z,7.53
2023-04-29T01:47:13.918Z,8.65
2023-04-29T01:49:46.908Z,7.40
2023-04-29T01:52:14.625Z,9.18
2023-04-29T01:54:50.707Z,7.97
2023-04-29T01:57:19.558Z,9.63
2023-04-29T02:00:11.663Z,9.77
2023-04-29T02:02:45.036Z,9.85
2023-04-29T02:05:20.400Z,8.90
2023-04-29T02:07:55.110Z,9.90
2023-04-29T02:10:22.652Z,8.32
2023-04-29T02:12:54.850Z,10.73
2023-04-29T02:15:22.168Z,8.82
2023-04-29T02:17:49.532Z,8.95
2023-04-29T02:20:21.194Z,11.07
2023-04-29T02:22:48.430Z,9.25
2023-04-29T02:25:15.817Z,9.02
2023-04-29T02:27:43.503Z,9.00
2023-04-29T02:30:11.772Z,9.93
2023-04-29T02:32:40.969Z,10.90
2023-04-29T02:35:08.649Z,13.57
2023-04-29T02:37:35.872Z,9.77
2023-04-29T02:40:03.641Z,8.13
2023-04-29T02:42:31.445Z,9.52
2023-04-29T02:45:01.682Z,9.25
2023-04-29T02:47:29.135Z,8.57
2023-04-29T02:49:56.602Z,11.45
2023-04-29T02:52:23.857Z,8.73
2023-04-29T02:54:51.434Z,10.32
2023-04-29T02:57:18.794Z,12.75
2023-04-29T02:59:46.190Z,10.32
2023-04-29T03:02:13.697Z,10.23
2023-04-29T03:04:41.724Z,10.48
2023-04-29T03:07:09.141Z,10.13
2023-04-29T03:09:37.297Z,9.70
2023-04-29T03:12:04.952Z,9.50
2023-04-29T03:14:32.174Z,9.55
2023-04-29T03:16:59.503Z,10.55
2023-04-29T03:19:26.800Z,12.48
2023-04-29T03:21:54.224Z,11.27
2023-04-29T03:24:22.374Z,11.75
2023-04-29T03:26:49.681Z,10.63
2023-04-29T03:29:19.913Z,9.60
2023-04-29T03:31:47.668Z,11.63
2023-04-29T03:34:15.337Z,11.77
2023-04-29T03:36:48.850Z,9.68
2023-04-29T03:39:16.258Z,9.80
2023-04-29T03:41:43.612Z,10.32
2023-04-29T03:44:11.276Z,10.27
2023-04-29T03:46:40.056Z,12.65
2023-04-29T03:49:07.891Z,10.18
2023-04-29T03:51:35.218Z,12.57
2023-04-29T03:54:10.931Z,11.98
2023-04-29T03:56:38.395Z,12.60
2023-04-29T03:59:05.780Z,12.48
2023-04-29T04:01:33.454Z,13.75
2023-04-29T04:04:01.074Z,14.85
2023-04-29T04:06:29.130Z,12.32
2023-04-29T04:08:56.517Z,13.50
2023-04-29T04:11:29.298Z,13.45
2023-04-29T04:14:05.797Z,13.32
2023-04-29T04:16:33.062Z,15.47
2023-04-29T04:19:00.633Z,12.40
2023-04-29T04:21:28.970Z,15.32
2023-04-29T04:24:01.814Z,14.35
2023-04-29T04:26:30.676Z,13.68
2023-04-29T04:29:10.504Z,12.95
2023-04-29T04:32:13.264Z,15.93
2023-04-29T04:34:40.647Z,15.50
2023-04-29T04:37:08.266Z,15.88
2023-04-29T04:39:36.623Z,14.32
2023-04-29T04:42:04.264Z,15.00
2023-04-29T04:44:34.354Z,19.10
2023-04-29T04:47:11.885Z,16.98
2023-04-29T04:49:53.168Z,18.23
2023-04-29T04:52:21.941Z,18.15
2023-04-29T04:54:57.207Z,19.52
2023-04-29T04:57:27.289Z,17.48
2023-04-29T04:59:57.049Z,18.55
2023-04-29T05:02:24.923Z,18.15
2023-04-29T05:04:52.390Z,17.35
2023-04-29T05:07:21.474Z,18.83
2023-04-29T05:10:00.584Z,19.37
2023-04-29T05:12:30.974Z,19.10
2023-04-29T05:14:59.619Z,15.82
2023-04-29T05:17:28.595Z,19.35
2023-04-29T05:19:56.755Z,18.00
2023-04-29T05:22:24.550Z,19.45
2023-04-29T05:24:54.201Z,18.58
2023-04-29T05:27:22.319Z,17.52
2023-04-29T05:29:49.853Z,17.30
2023-04-29T05:32:18.365Z,19.95
2023-04-29T05:34:46.545Z,20.60
2023-04-29T05:37:14.016Z,17.50
2023-04-29T05:39:58.746Z,18.13
2023-04-29T05:42:26.320Z,25.60
2023-04-29T05:44:53.942Z,24.33
2023-04-29T05:47:21.575Z,21.95
2023-04-29T05:49:49.391Z,22.85
2023-04-29T05:52:16.851Z,19.85
2023-04-29T05:54:47.091Z,20.17
2023-04-29T05:57:14.382Z,29.52
2023-04-29T05:59:41.674Z,22.73
2023-04-29T06:02:11.025Z,23.55
2023-04-29T06:04:41.784Z,22.33
2023-04-29T06:07:28.751Z,24.25
2023-04-29T06:10:01.314Z,23.00
2023-04-29T06:12:30.288Z,24.55
2023-04-29T06:14:59.082Z,23.58
2023-04-29T06:17:29.368Z,21.70
2023-04-29T06:19:56.791Z,21.80
2023-04-29T06:22:24.644Z,22.90
2023-04-29T06:24:54.411Z,23.58
2023-04-29T06:27:40.390Z,24.70
2023-04-29T06:30:08.623Z,26.02
2023-04-29T06:32:36.192Z,26.20
2023-04-29T06:35:04.146Z,28.25
2023-04-29T06:37:49.531Z,24.08
2023-04-29T06:40:32.656Z,25.38
2023-04-29T06:43:06.254Z,26.63
2023-04-29T06:45:53.778Z,27.70
2023-04-29T06:48:23.744Z,24.92
2023-04-29T06:50:52.212Z,28.08
2023-04-29T06:53:19.914Z,29.67
2023-04-29T06:55:47.579Z,27.17
2023-04-29T06:58:18.801Z,29.33
2023-04-29T07:00:50.986Z,27.90
2023-04-29T07:03:19.023Z,27.48
2023-04-29T07:05:46.662Z,30.80
2023-04-29T07:08:14.722Z,30.50
2023-04-29T07:10:42.012Z,34.17
2023-04-29T07:13:09.300Z,32.20
2023-04-29T07:15:36.989Z,40.22
2023-04-29T07:18:05.590Z,37.47
2023-04-29T07:20:33.528Z,38.83
2023-04-29T07:23:00.992Z,40.08
2023-04-29T07:25:29.492Z,39.10
2023-04-29T07:27:57.088Z,39.33
2023-04-29T07:30:26.200Z,43.05
2023-04-29T07:32:53.893Z,38.10
2023-04-29T07:35:21.287Z,43.13
2023-04-29T07:37:49.241Z,41.97
2023-04-29T07:40:16.748Z,41.75
2023-04-29T07:42:44.356Z,40.42
2023-04-29T07:45:13.917Z,45.95
2023-04-29T07:47:41.529Z,42.50
2023-04-29T07:50:09.213Z,41.38
2023-04-29T07:52:36.708Z,38.50
2023-04-29T07:55:04.468Z,44.67
2023-04-29T07:57:31.993Z,49.20
2023-04-29T07:59:59.705Z,47.13
2023-04-29T08:02:27.160Z,45.35
2023-04-29T08:04:56.253Z,53.17
2023-04-29T08:07:24.239Z,47.90
2023-04-29T08:09:52.079Z,57.38
2023-04-29T08:12:19.366Z,51.13
2023-04-29T08:14:48.113Z,51.30
2023-04-29T08:17:15.623Z,57.58
2023-04-29T08:19:43.107Z,52.00
2023-04-29T08:22:12.322Z,50.22
2023-04-29T08:24:39.597Z,42.92
2023-04-29T08:27:07.962Z,46.28
2023-04-29T08:29:35.264Z,45.97
2023-04-29T08:32:03.165Z,44.20
2023-04-29T08:34:31.619Z,38.83
2023-04-29T08:36:58.866Z,42.00
2023-04-29T08:39:26.181Z,37.53
2023-04-29T08:41:54.850Z,34.70
2023-04-29T08:44:22.536Z,39.55
2023-04-29T08:46:50.293Z,39.50
2023-04-29T08:49:17.693Z,43.20
2023-04-29T08:51:45.448Z,41.47
2023-04-29T08:54:12.647Z,41.88
2023-04-29T08:56:40.420Z,41.45
2023-04-29T08:59:09.855Z,46.40
2023-04-29T09:01:38.441Z,48.33
2023-04-29T09:04:08.838Z,46.08
2023-04-29T09:06:36.246Z,43.45
2023-04-29T09:09:04.274Z,47.42
2023-04-29T09:11:32.308Z,47.42
2023-04-29T09:14:01.537Z,51.50
2023-04-29T09:16:29.267Z,46.17
2023-04-29T09:18:57.011Z,48.85
2023-04-29T09:21:28.551Z,46.05
2023-04-29T09:23:58.018Z,44.85
2023-04-29T09:26:26.035Z,46.03
2023-04-29T09:29:18.272Z,47.53
2023-04-29T09:31:46.361Z,48.65
2023-04-29T09:34:14.550Z,50.72
2023-04-29T09:36:48.967Z,43.97
2023-04-29T09:39:17.814Z,41.15
2023-04-29T09:41:54.275Z,46.85
2023-04-29T09:44:24.651Z,47.80
2023-04-29T09:47:09.108Z,48.22
2023-04-29T09:49:40.900Z,47.83
2023-04-29T09:52:13.468Z,47.13
2023-04-29T09:54:41.961Z,46.53
2023-04-29T09:57:11.664Z,40.17
2023-04-29T09:59:40.655Z,44.38
2023-04-29T10:02:15.684Z,42.42
2023-04-29T10:04:46.070Z,46.30
2023-04-29T10:07:17.671Z,43.78
2023-04-29T10:09:47.381Z,50.40
2023-04-29T10:12:20.808Z,50.83
2023-04-29T10:14:55.277Z,49.67
2023-04-29T10:17:53.160Z,47.53
2023-04-29T10:20:24.867Z,42.28
2023-04-29T10:22:54.859Z,48.10
2023-04-29T10:25:24.548Z,46.63
2023-04-29T10:27:54.743Z,43.03
2023-04-29T10:30:22.672Z,40.58
2023-04-29T10:32:52.776Z,49.03
2023-04-29T10:35:25.766Z,44.20
2023-04-29T10:37:53.781Z,42.67
2023-04-29T10:40:36.542Z,48.13
2023-04-29T10:43:04.744Z,45.13
2023-04-29T10:45:35.012Z,41.92
2023-04-29T10:48:02.874Z,42.85
2023-04-29T10:50:30.579Z,43.05
2023-04-29T10:52:58.771Z,43.38
2023-04-29T10:55:26.276Z,46.42
2023-04-29T10:57:56.605Z,43.03
2023-04-29T11:00:28.864Z,43.47
2023-04-29T11:03:00.904Z,37.72
2023-04-29T11:05:33.587Z,37.58
2023-04-29T11:08:12.762Z,37.40
2023-04-29T11:10:43.994Z,35.38
2023-04-29T11:13:29.283Z,34.75
2023-04-29T11:16:09.208Z,32.72
2023-04-29T11:18:37.994Z,30.40
2023-04-29T11:21:08.382Z,34.22
2023-04-29T11:23:36.535Z,34.80
2023-04-29T11:26:04.082Z,35.33
2023-04-29T11:28:32.556Z,36.97
2023-04-29T11:31:00.457Z,34.58
2023-04-29T11:33:28.266Z,35.47
2023-04-29T11:35:56.429Z,39.38
2023-04-29T11:38:30.498Z,34.25
2023-04-29T11:40:58.362Z,36.55
2023-04-29T11:43:25.944Z,31.52
2023-04-29T11:45:53.942Z,30.48
2023-04-29T11:48:22.751Z,31.58
2023-04-29T11:50:55.822Z,25.83
2023-04-29T11:53:26.972Z,30.60
2023-04-29T11:55:55.041Z,30.38
2023-04-29T11:58:23.046Z,29.38
2023-04-29T12:00:51.900Z,27.50
2023-04-29T12:03:21.138Z,27.27
2023-04-29T12:05:49.593Z,24.73
2023-04-29T12:08:22.561Z,27.23
2023-04-29T12:10:50.828Z,27.73
2023-04-29T12:13:19.045Z,28.58
2023-04-29T12:15:47.637Z,22.88
2023-04-29T12:18:15.248Z,24.15
2023-04-29T12:20:42.639Z,24.83
2023-04-29T12:23:13.362Z,23.50
2023-04-29T12:25:44.117Z,26.55
2023-04-29T12:28:14.936Z,24.95
2023-04-29T12:30:44.400Z,29.85
2023-04-29T12:33:19.856Z,28.08
2023-04-29T12:35:47.360Z,27.67
2023-04-29T12:38:17.459Z,26.83
2023-04-29T12:40:44.959Z,25.50
2023-04-29T12:43:12.453Z,31.75
2023-04-29T12:45:39.790Z,29.15
2023-04-29T12:48:12.365Z,28.85
2023-04-29T12:50:51.479Z,26.52
2023-04-29T12:53:18.981Z,24.45
2023-04-29T12:55:46.322Z,26.20
2023-04-29T12:58:13.791Z,26.60
2023-04-29T13:00:41.216Z,26.55
2023-04-29T13:03:08.703Z,27.80
2023-04-29T13:05:36.169Z,23.98
2023-04-29T13:08:06.032Z,29.08
2023-04-29T13:10:33.341Z,25.95
2023-04-29T13:13:00.676Z,25.80
2023-04-29T13:15:28.265Z,26.67
2023-04-29T13:17:55.797Z,29.02
2023-04-29T13:20:23.092Z,25.88
2023-04-29T13:22:50.945Z,30.95
2023-04-29T13:25:18.741Z,23.27
2023-04-29T13:27:46.055Z,30.60
2023-04-29T13:30:13.815Z,22.75
2023-04-29T13:32:46.300Z,26.67
2023-04-29T13:35:16.774Z,26.75
2023-04-29T13:37:44.014Z,29.65
2023-04-29T13:40:19.765Z,26.60
2023-04-29T13:42:50.608Z,24.17
2023-04-29T13:45:24.268Z,23.25
2023-04-29T13:48:07.214Z,28.83
2023-04-29T13:53:41.253Z,26.27
2023-04-29T14:06:01.798Z,23.20
2023-04-29T14:08:29.066Z,23.23
2023-04-29T14:10:56.921Z,22.60
2023-04-29T14:13:24.287Z,22.95
2023-04-29T14:15:51.879Z,21.42
2023-04-29T14:18:19.226Z,23.95
2023-04-29T14:20:46.700Z,24.15
2023-04-29T14:23:13.964Z,24.58
2023-04-29T14:25:41.190Z,21.98
2023-04-29T14:28:08.741Z,22.75
2023-04-29T14:30:36.042Z,23.88
2023-04-29T14:33:03.429Z,21.67
2023-04-29T14:35:31.672Z,21.52
2023-04-29T14:37:58.890Z,21.73
2023-04-29T14:40:26.221Z,24.80
2023-04-29T14:42:53.495Z,24.88
2023-04-29T14:45:20.748Z,23.35
2023-04-29T14:47:48.168Z,21.05
2023-04-29T14:50:16.279Z,23.42
2023-04-29T14:52:43.659Z,19.55
2023-04-29T14:55:11.684Z,21.17
2023-04-29T14:57:38.946Z,19.27
2023-04-29T15:00:08.194Z,21.95
2023-04-29T15:02:35.577Z,21.73
2023-04-29T15:05:04.204Z,18.65
2023-04-29T15:07:32.422Z,18.42
2023-04-29T15:09:59.884Z,25.42
2023-04-29T15:12:27.213Z,19.65
2023-04-29T15:14:54.620Z,17.85
2023-04-29T15:17:22.239Z,18.98
2023-04-29T15:19:49.631Z,18.75
2023-04-29T15:22:16.859Z,19.45
2023-04-29T15:24:44.213Z,23.27
2023-04-29T15:27:11.571Z,19.95
2023-04-29T15:29:39.106Z,20.25
2023-04-29T15:32:06.534Z,20.63
2023-04-29T15:34:33.869Z,19.13
2023-04-29T15:37:01.278Z,17.77
2023-04-29T15:39:28.511Z,17.40
2023-04-29T15:41:55.800Z,16.52
2023-04-29T15:44:23.183Z,19.48
2023-04-29T15:46:50.484Z,17.80
2023-04-29T15:49:18.324Z,16.40
2023-04-29T15:51:45.597Z,16.33
2023-04-29T15:54:12.796Z,16.13
2023-04-29T15:56:40.117Z,18.63
2023-04-29T15:59:07.548Z,17.35
2023-04-29T16:01:36.574Z,20.25
2023-04-29T16:04:04.406Z,16.67
2023-04-29T16:06:32.773Z,26.77
2023-04-29T16:09:00.643Z,17.55
2023-04-29T16:11:27.910Z,18.83
2023-04-29T16:13:55.187Z,19.90
2023-04-29T16:16:23.598Z,19.60
2023-04-29T16:18:52.374Z,20.30
2023-04-29T16:21:19.642Z,26.00
2023-04-29T16:23:47.056Z,21.33
2023-04-29T16:26:14.396Z,19.65
2023-04-29T16:28:41.851Z,20.38
2023-04-29T16:31:12.943Z,21.48
2023-04-29T16:33:40.717Z,24.05
2023-04-29T16:36:08.006Z,21.20
2023-04-29T16:38:35.300Z,19.05
2023-04-29T16:41:02.781Z,22.65
2023-04-29T16:43:30.038Z,21.88
2023-04-29T16:45:57.871Z,21.75
2023-04-29T16:48:25.276Z,21.25
2023-04-29T16:50:52.484Z,21.85
2023-04-29T16:53:19.740Z,21.73
2023-04-29T16:55:47.041Z,25.98
2023-04-29T16:58:14.243Z,21.35
2023-04-29T17:00:41.695Z,19.60
2023-04-29T17:03:09.684Z,21.00
2023-04-29T17:05:37.581Z,24.27
2023-04-29T17:08:05.051Z,21.70
2023-04-29T17:10:32.263Z,23.98
2023-04-29T17:12:59.625Z,24.83
2023-04-29T17:15:26.890Z,27.48
2023-04-29T17:17:55.714Z,22.95
2023-04-29T17:20:23.252Z,20.00
2023-04-29T17:22:50.894Z,22.15
2023-04-29T17:25:18.126Z,23.80
2023-04-29T17:27:46.068Z,21.88
2023-04-29T17:30:13.584Z,20.35
2023-04-29T17:32:41.436Z,20.17
2023-04-29T17:35:09.548Z,21.20
2023-04-29T17:37:36.904Z,19.73
2023-04-29T17:40:05.018Z,21.90
2023-04-29T17:42:32.473Z,21.90
2023-04-29T17:44:59.724Z,24.92
2023-04-29T17:47:27.237Z,23.17
2023-04-29T17:49:54.991Z,22.73
2023-04-29T17:52:22.677Z,19.98
2023-04-29T17:54:50.006Z,20.33
2023-04-29T17:57:17.497Z,20.58
2023-04-29T17:59:47.195Z,23.52
2023-04-29T18:02:14.649Z,23.75
2023-04-29T18:04:42.048Z,22.80
2023-04-29T18:07:09.279Z,21.80
2023-04-29T18:09:36.526Z,21.95
2023-04-29T18:12:03.789Z,26.50
2023-04-29T18:14:31.679Z,21.80
2023-04-29T18:17:01.039Z,18.75
2023-04-29T18:19:28.886Z,22.90
2023-04-29T18:21:59.052Z,22.55
2023-04-29T18:26:53.583Z,23.55
2023-04-29T18:29:20.984Z,22.00
2023-04-29T18:31:48.461Z,21.05
2023-04-29T18:34:16.038Z,21.95
2023-04-29T18:36:43.225Z,18.20
2023-04-29T18:39:10.545Z,20.23
2023-04-29T18:41:37.804Z,20.88
2023-04-29T18:44:05.317Z,20.90
2023-04-29T18:46:32.730Z,18.02
2023-04-29T18:49:00.125Z,20.92
2023-04-29T18:51:28.281Z,19.60
2023-04-29T18:53:55.642Z,18.13
2023-04-29T18:56:23.406Z,16.80
2023-04-29T18:58:50.940Z,18.05
2023-04-29T19:01:18.697Z,19.88
2023-04-29T19:03:46.855Z,15.32
2023-04-29T19:06:14.271Z,19.83
2023-04-29T19:08:41.728Z,18.95
2023-04-29T19:11:09.092Z,20.15
2023-04-29T19:13:36.396Z,18.20
2023-04-29T19:16:03.991Z,18.05
2023-04-29T19:18:31.314Z,18.90
2023-04-29T19:20:58.648Z,19.73
2023-04-29T19:23:25.878Z,20.30
2023-04-29T19:25:53.257Z,16.00
2023-04-29T19:28:20.856Z,17.77
2023-04-29T19:30:48.275Z,22.92
2023-04-29T19:33:15.699Z,18.80
2023-04-29T19:35:42.967Z,17.15
2023-04-29T19:38:11.144Z,20.70
2023-04-29T19:40:39.139Z,20.10
2023-04-29T19:43:06.417Z,19.77
2023-04-29T19:45:35.072Z,19.48
2023-04-29T19:48:03.074Z,20.02
2023-04-29T19:50:30.577Z,20.02
2023-04-29T19:52:58.641Z,22.65
2023-04-29T19:55:26.323Z,19.80
2023-04-29T19:57:53.871Z,20.45
2023-04-29T20:00:21.317Z,23.83
2023-04-29T20:02:50.900Z,23.85
2023-04-29T20:05:19.596Z,20.02
2023-04-29T20:07:46.901Z,21.77
2023-04-29T20:10:14.505Z,24.75
2023-04-29T20:12:42.486Z,24.30
2023-04-29T20:15:10.174Z,22.75
2023-04-29T20:17:37.707Z,22.25
2023-04-29T20:20:09.038Z,25.33
2023-04-29T20:22:36.529Z,27.73
2023-04-29T20:25:04.384Z,27.60
2023-04-29T20:27:32.115Z,24.80
2023-04-29T20:29:59.509Z,29.30
2023-04-29T20:32:27.254Z,28.35
2023-04-29T20:34:54.663Z,30.85
2023-04-29T20:37:22.022Z,28.83
2023-04-29T20:39:49.256Z,30.05
2023-04-29T20:42:16.922Z,27.75
2023-04-29T20:44:44.459Z,29.70
2023-04-29T20:47:12.510Z,29.85
2023-04-29T20:49:39.812Z,31.65
2023-04-29T20:52:07.308Z,29.38
2023-04-29T20:54:35.268Z,29.23
2023-04-29T20:57:05.492Z,29.05
2023-04-29T20:59:33.791Z,32.13
2023-04-29T21:02:01.239Z,26.65
2023-04-29T21:04:28.666Z,27.20
2023-04-29T21:06:56.335Z,28.80
2023-04-29T21:09:23.631Z,27.92
2023-04-29T21:11:51.197Z,29.17
2023-04-29T21:14:18.982Z,30.20
2023-04-29T21:16:46.453Z,31.13
2023-04-29T21:19:13.834Z,33.03
2023-04-29T21:21:41.064Z,30.35
2023-04-29T21:24:08.841Z,28.30
2023-04-29T21:26:36.168Z,23.65
2023-04-29T21:29:03.970Z,25.30
2023-04-29T21:31:31.462Z,26.52
2023-04-29T21:33:59.433Z,23.45
2023-04-29T21:36:26.884Z,25.27
2023-04-29T21:38:54.767Z,21.35
2023-04-29T21:41:26.623Z,25.10
2023-04-29T21:43:58.519Z,27.83
2023-04-29T21:46:27.849Z,22.77
2023-04-29T21:48:57.609Z,23.65
2023-04-29T21:51:25.281Z,22.05
2023-04-29T21:53:52.533Z,21.70
2023-04-29T21:56:19.900Z,23.88
2023-04-29T21:58:47.217Z,21.65
2023-04-29T22:01:27.124Z,22.67
2023-04-29T22:03:56.163Z,25.60
2023-04-29T22:06:24.064Z,22.73
2023-04-29T22:08:51.358Z,22.70
2023-04-29T22:11:21.827Z,21.45
2023-04-29T22:13:49.127Z,21.08
2023-04-29T22:16:16.777Z,23.33
2023-04-29T22:18:44.145Z,22.27
2023-04-29T22:21:13.078Z,25.70
2023-04-29T22:23:40.425Z,27.05
2023-04-29T22:26:07.569Z,23.23
2023-04-29T22:28:35.266Z,24.17
2023-04-29T22:31:02.579Z,20.17
2023-04-29T22:33:29.945Z,20.02
2023-04-29T22:35:57.212Z,20.35
2023-04-29T22:38:24.577Z,20.33
2023-04-29T22:40:52.133Z,19.42
2023-04-29T22:43:19.502Z,20.90
2023-04-29T22:45:53.913Z,19.90
2023-04-29T22:48:21.502Z,22.75
2023-04-29T22:50:52.590Z,20.17
2023-04-29T22:53:20.250Z,21.30
2023-04-29T22:55:57.495Z,20.63
2023-04-29T22:58:25.766Z,21.50
2023-04-29T23:00:59.181Z,20.80
2023-04-29T23:03:27.518Z,22.08
2023-04-29T23:06:02.398Z,24.20
2023-04-29T23:08:29.936Z,21.85
2023-04-29T23:10:57.219Z,22.42
2023-04-29T23:13:24.644Z,20.58
2023-04-29T23:15:55.331Z,20.15
2023-04-29T23:18:22.787Z,22.13
2023-04-29T23:20:50.019Z,22.80
2023-04-29T23:23:17.999Z,23.23
2023-04-29T23:25:45.927Z,22.15
2023-04-29T23:28:13.232Z,22.13
2023-04-29T23:30:40.878Z,22.60
2023-04-29T23:33:08.288Z,21.88
2023-04-29T23:35:35.687Z,22.13
2023-04-29T23:38:02.924Z,22.67
2023-04-29T23:40:31.615Z,22.00
2023-04-29T23:42:59.074Z,23.73
2023-04-29T23:45:26.378Z,23.10
2023-04-29T23:47:53.789Z,20.70
2023-04-29T23:50:21.012Z,22.13
2023-04-29T23:52:48.432Z,21.20
2023-04-29T23:55:15.735Z,23.40
2023-04-29T23:57:43.276Z,21.70
